Time;durP1;ratioP1;P1;durP2;ratioP2;P2;SDS_P1;SDS_P2;PMS_P1;PMS_P2;Temp;Humidity;BMP_temperature;BMP_pressure;BME280_temperature;BME280_humidity;BME280_pressure;Samples;Min_cycle;Max_cycle;Signal;HPM_P1;HPM_P2
2022/03/10 17:08:50;;;;;;;;;;;13.90;92.80;;;;;;5496982;23;19930;-75
2022/03/10 17:11:16;;;;;;;;;;;13.80;93.20;;;;;;4991473;28;19921;-77
2022/03/10 17:13:42;;;;;;;;;;;13.70;92.70;;;;;;4991392;28;20242;-79
2022/03/10 17:16:09;;;;;;;;;;;13.70;92.90;;;;;;4991807;28;19925;-78
2022/03/10 17:18:35;;;;;;;;;;;13.60;92.50;;;;;;4991933;28;20067;-79
2022/03/10 17:21:02;;;;;;;;;;;13.50;92.90;;;;;;4992094;28;19948;-74
2022/03/10 17:23:29;;;;;;;;;;;13.50;92.00;;;;;;4992487;28;19992;-83
2022/03/10 17:25:55;;;;;;;;;;;13.40;91.90;;;;;;4991324;28;19906;-80
2022/03/10 17:28:22;;;;;;;;;;;13.30;88.10;;;;;;4992263;28;19912;-81
2022/03/10 17:30:48;;;;;;;;;;;13.20;86.20;;;;;;4992500;28;19906;-80
2022/03/10 17:33:13;;;;;;;;;;;13.10;86.30;;;;;;4992284;28;19913;-81
2022/03/10 17:35:41;;;;;;;;;;;13.00;86.40;;;;;;4992429;28;20289;-80
2022/03/10 17:38:12;;;;;;;;;;;12.90;86.80;;;;;;4993458;28;19905;-76
2022/03/10 17:40:41;;;;;;;;;;;12.80;87.20;;;;;;4992830;28;19910;-82
2022/03/10 17:43:07;;;;;;;;;;;12.70;87.40;;;;;;4992216;28;19905;-81
2022/03/10 17:45:33;;;;;;;;;;;12.70;87.70;;;;;;4992307;28;19916;-82
2022/03/10 17:47:59;;;;;;;;;;;12.60;88.10;;;;;;4995486;28;19906;-81
2022/03/10 17:50:26;;;;;;;;;;;12.50;88.20;;;;;;4996173;28;19929;-81
2022/03/10 17:52:52;;;;;;;;;;;12.30;89.60;;;;;;4995206;28;19929;-82
2022/03/10 17:55:18;;;;;;;;;;;12.20;89.50;;;;;;4995004;28;19953;-79
2022/03/10 17:57:44;;;;;;;;;;;11.80;90.30;;;;;;4995383;28;19940;-79
2022/03/10 18:00:11;;;;;;;;;;;11.80;90.50;;;;;;4995374;28;20386;-77
2022/03/10 18:02:37;;;;;;;;;;;11.70;90.60;;;;;;4995446;28;19906;-79
2022/03/10 18:05:03;;;;;;;;;;;11.70;90.50;;;;;;4996178;28;19917;-81
2022/03/10 18:07:28;;;;;;;;;;;11.60;90.70;;;;;;4995441;28;19952;-80
2022/03/10 18:09:56;;;;;;;;;;;11.60;90.80;;;;;;4994889;28;20389;-75
2022/03/10 18:12:22;;;;;;;;;;;11.60;90.70;;;;;;4995200;28;20008;-75
2022/03/10 18:14:48;;;;;;;;;;;11.50;90.70;;;;;;4995167;28;19913;-75
2022/03/10 18:17:15;;;;;;;;;;;11.50;90.80;;;;;;4995214;28;19906;-80
2022/03/10 18:19:41;;;;;;;;;;;11.50;90.80;;;;;;4995487;28;19936;-80
2022/03/10 18:22:07;;;;;;;;;;;11.50;91.40;;;;;;4994150;28;19960;-80
2022/03/10 18:24:33;;;;;;;;;;;11.50;90.90;;;;;;4995735;28;19913;-81
2022/03/10 18:26:59;;;;;;;;;;;11.40;91.00;;;;;;4995418;28;20358;-81
2022/03/10 18:29:27;;;;;;;;;;;11.40;91.00;;;;;;4995352;28;20302;-80
2022/03/10 18:31:53;;;;;;;;;;;11.30;90.90;;;;;;4995212;28;19913;-79
2022/03/10 18:34:19;;;;;;;;;;;11.30;90.90;;;;;;4995167;28;20017;-80
2022/03/10 18:36:45;;;;;;;;;;;11.20;91.10;;;;;;4994930;28;20454;-80
2022/03/10 18:39:11;;;;;;;;;;;11.20;91.20;;;;;;4995198;28;19906;-80
2022/03/10 18:41:37;;;;;;;;;;;11.20;91.00;;;;;;4994948;28;19906;-80
2022/03/10 18:44:03;;;;;;;;;;;11.20;91.50;;;;;;4994824;28;20349;-79
2022/03/10 18:46:28;;;;;;;;;;;11.10;90.70;;;;;;4994745;28;20325;-79
2022/03/10 18:48:54;;;;;;;;;;;11.10;90.50;;;;;;4995375;28;19912;-80
2022/03/10 18:51:20;;;;;;;;;;;11.10;90.50;;;;;;4994433;28;19906;-75
2022/03/10 18:53:47;;;;;;;;;;;11.00;90.70;;;;;;4994744;28;19906;-76
2022/03/10 18:56:15;;;;;;;;;;;10.90;91.00;;;;;;4993881;28;19910;-77
2022/03/10 18:58:41;;;;;;;;;;;11.00;90.90;;;;;;4993559;28;20024;-84
2022/03/10 19:01:07;;;;;;;;;;;10.90;90.90;;;;;;4976316;28;20257;-82
2022/03/10 19:03:33;;;;;;;;;;;10.90;90.90;;;;;;4993830;28;19909;-83
2022/03/10 19:05:59;;;;;;;;;;;10.90;91.00;;;;;;4993952;28;19968;-84
2022/03/10 19:08:25;;;;;;;;;;;10.90;90.60;;;;;;4993914;28;19937;-83
2022/03/10 19:10:51;;;;;;;;;;;10.90;90.50;;;;;;4989777;28;19937;-79
2022/03/10 19:13:16;;;;;;;;;;;10.90;90.70;;;;;;4981893;28;19925;-82
2022/03/10 19:15:44;;;;;;;;;;;10.80;90.60;;;;;;4982517;28;19972;-82
2022/03/10 19:18:10;;;;;;;;;;;10.80;90.70;;;;;;4983316;28;19906;-83
2022/03/10 19:20:36;;;;;;;;;;;10.70;90.90;;;;;;4982207;28;20316;-83
2022/03/10 19:23:02;;;;;;;;;;;10.70;90.90;;;;;;4980784;28;19928;-83
2022/03/10 19:25:27;;;;;;;;;;;10.70;90.90;;;;;;4977157;28;19910;-80
2022/03/10 19:27:53;;;;;;;;;;;10.70;90.50;;;;;;4974872;28;19992;-80
2022/03/10 19:30:19;;;;;;;;;;;10.70;90.70;;;;;;4974802;28;19906;-81
2022/03/10 19:32:45;;;;;;;;;;;10.70;90.40;;;;;;4974972;28;19913;-82
2022/03/10 19:35:11;;;;;;;;;;;10.80;90.20;;;;;;4974317;28;19914;-82
2022/03/10 19:37:38;;;;;;;;;;;10.70;90.50;;;;;;4973213;28;20459;-81
2022/03/10 19:40:05;;;;;;;;;;;10.70;90.20;;;;;;4974272;28;20049;-83
2022/03/10 19:42:31;;;;;;;;;;;10.60;90.80;;;;;;4973002;28;19913;-81
2022/03/10 19:44:57;;;;;;;;;;;10.50;90.60;;;;;;4974346;28;19906;-82
2022/03/10 19:47:22;;;;;;;;;;;10.30;90.80;;;;;;4974461;28;20358;-81
2022/03/10 19:49:48;;;;;;;;;;;10.20;90.80;;;;;;4974827;28;19906;-82
2022/03/10 19:52:15;;;;;;;;;;;10.10;91.10;;;;;;4974079;28;19953;-81
2022/03/10 19:54:41;;;;;;;;;;;10.20;90.90;;;;;;4972142;28;20319;-81
2022/03/10 19:57:08;;;;;;;;;;;10.20;90.80;;;;;;4973584;28;20330;-81
2022/03/10 19:59:35;;;;;;;;;;;10.10;90.80;;;;;;4973905;28;19961;-76
2022/03/10 20:02:02;;;;;;;;;;;10.20;90.70;;;;;;4972626;28;19910;-81
2022/03/10 20:04:27;;;;;;;;;;;10.20;90.80;;;;;;4973486;28;19913;-81
2022/03/10 20:06:53;;;;;;;;;;;10.10;90.80;;;;;;4973522;28;19988;-80
2022/03/10 20:09:19;;;;;;;;;;;10.00;90.90;;;;;;4972840;28;19914;-82
2022/03/10 20:11:45;;;;;;;;;;;10.10;90.90;;;;;;4973377;28;19918;-81
2022/03/10 20:14:12;;;;;;;;;;;10.00;91.00;;;;;;4973057;28;20282;-81
2022/03/10 20:16:38;;;;;;;;;;;9.90;91.40;;;;;;4973284;28;19989;-79
2022/03/10 20:19:06;;;;;;;;;;;10.00;91.30;;;;;;4973198;28;19988;-81
2022/03/10 20:21:32;;;;;;;;;;;10.00;91.10;;;;;;4973106;28;19941;-81
2022/03/10 20:23:58;;;;;;;;;;;9.90;91.10;;;;;;4973595;28;19985;-81
2022/03/10 20:26:25;;;;;;;;;;;9.90;91.30;;;;;;4978443;28;20386;-79
2022/03/10 20:28:51;;;;;;;;;;;9.80;91.50;;;;;;4990960;28;19968;-81
2022/03/10 20:31:17;;;;;;;;;;;9.70;91.70;;;;;;4992869;28;19917;-81
2022/03/10 20:33:43;;;;;;;;;;;9.70;91.70;;;;;;4992461;28;19906;-81
2022/03/10 20:36:09;;;;;;;;;;;9.60;91.80;;;;;;4992415;28;19921;-81
2022/03/10 20:38:35;;;;;;;;;;;9.70;91.70;;;;;;4992617;28;20188;-81
2022/03/10 20:41:01;;;;;;;;;;;9.70;91.70;;;;;;4992620;28;19992;-81
2022/03/10 20:43:27;;;;;;;;;;;9.60;91.90;;;;;;4992566;28;19988;-81
2022/03/10 20:45:53;;;;;;;;;;;9.60;92.00;;;;;;4992238;28;19953;-82
2022/03/10 20:48:19;;;;;;;;;;;9.50;92.00;;;;;;4992594;28;19940;-81
2022/03/10 20:50:45;;;;;;;;;;;9.60;91.90;;;;;;4992328;28;19906;-81
2022/03/10 20:53:12;;;;;;;;;;;9.60;91.90;;;;;;4992540;28;19906;-81
2022/03/10 20:55:38;;;;;;;;;;;9.60;92.00;;;;;;4992120;28;20357;-82
2022/03/10 20:58:03;;;;;;;;;;;9.60;92.40;;;;;;4990989;28;19917;-80
2022/03/10 21:00:31;;;;;;;;;;;9.60;92.30;;;;;;4990857;28;20420;-81
2022/03/10 21:02:57;;;;;;;;;;;9.60;92.80;;;;;;4992258;28;19909;-77
2022/03/10 21:05:23;;;;;;;;;;;9.60;92.40;;;;;;4990955;28;19976;-81
2022/03/10 21:07:49;;;;;;;;;;;9.50;92.90;;;;;;4991008;28;19985;-83
2022/03/10 21:10:15;;;;;;;;;;;9.50;93.20;;;;;;4992277;28;20318;-82
2022/03/10 21:12:41;;;;;;;;;;;9.50;93.10;;;;;;4992578;28;19910;-83
2022/03/10 21:15:07;;;;;;;;;;;9.60;92.70;;;;;;4990800;28;19922;-83
2022/03/10 21:17:33;;;;;;;;;;;9.60;93.00;;;;;;4992449;28;19906;-79
2022/03/10 21:19:59;;;;;;;;;;;9.60;92.90;;;;;;4990913;28;20325;-82
2022/03/10 21:22:28;;;;;;;;;;;9.60;92.70;;;;;;4995084;28;19905;-82
2022/03/10 21:24:54;;;;;;;;;;;9.60;92.70;;;;;;4996054;28;19916;-81
2022/03/10 21:27:20;;;;;;;;;;;9.70;92.90;;;;;;4995795;28;19906;-82
2022/03/10 21:29:46;;;;;;;;;;;9.60;92.60;;;;;;4995505;28;19906;-79
2022/03/10 21:32:12;;;;;;;;;;;9.60;92.80;;;;;;4995559;28;19914;-80
2022/03/10 21:34:37;;;;;;;;;;;9.60;92.80;;;;;;4995271;28;19932;-81
2022/03/10 21:37:03;;;;;;;;;;;9.60;92.80;;;;;;4995563;28;20249;-81
2022/03/10 21:39:29;;;;;;;;;;;9.50;93.00;;;;;;4993945;28;19956;-83
2022/03/10 21:41:57;;;;;;;;;;;9.40;93.10;;;;;;4994089;28;19905;-83
2022/03/10 21:44:23;;;;;;;;;;;9.40;93.20;;;;;;4993990;28;19906;-83
2022/03/10 21:46:49;;;;;;;;;;;9.40;93.20;;;;;;4995891;28;20354;-83
2022/03/10 21:49:15;;;;;;;;;;;9.40;93.20;;;;;;4995118;28;20088;-82
2022/03/10 21:51:42;;;;;;;;;;;9.40;93.20;;;;;;4995182;28;20346;-82
2022/03/10 21:54:08;;;;;;;;;;;9.30;93.40;;;;;;4994939;28;20004;-82
2022/03/10 21:56:34;;;;;;;;;;;9.30;93.40;;;;;;4995083;28;20341;-82
2022/03/10 21:59:00;;;;;;;;;;;9.40;93.50;;;;;;4994988;28;19909;-83
2022/03/10 22:01:26;;;;;;;;;;;9.30;93.50;;;;;;4994888;28;19951;-81
2022/03/10 22:03:52;;;;;;;;;;;9.30;93.60;;;;;;4993377;28;19912;-82
2022/03/10 22:06:18;;;;;;;;;;;9.40;93.80;;;;;;4993259;28;20012;-82
2022/03/10 22:08:44;;;;;;;;;;;9.40;93.90;;;;;;4994641;28;20308;-83
2022/03/10 22:11:10;;;;;;;;;;;9.40;93.90;;;;;;4994865;28;19918;-82
2022/03/10 22:13:36;;;;;;;;;;;9.30;94.00;;;;;;4994645;28;20223;-82
2022/03/10 22:16:02;;;;;;;;;;;9.30;94.20;;;;;;4994498;28;19948;-83
2022/03/10 22:18:28;;;;;;;;;;;9.30;94.30;;;;;;4994803;28;20328;-82
2022/03/10 22:20:54;;;;;;;;;;;9.30;94.40;;;;;;4994482;28;19913;-82
2022/03/10 22:23:20;;;;;;;;;;;9.30;94.40;;;;;;4994555;28;19906;-82
2022/03/10 22:25:46;;;;;;;;;;;9.20;94.60;;;;;;4994137;28;19912;-82
2022/03/10 22:28:12;;;;;;;;;;;9.20;94.70;;;;;;4994552;28;19905;-82
2022/03/10 22:30:37;;;;;;;;;;;9.20;94.80;;;;;;4993371;28;20054;-84
2022/03/10 22:33:04;;;;;;;;;;;9.20;94.90;;;;;;4993017;28;19910;-82
2022/03/10 22:35:29;;;;;;;;;;;9.20;94.90;;;;;;4993430;28;20403;-82
2022/03/10 22:37:55;;;;;;;;;;;9.20;95.00;;;;;;4994299;28;19992;-83
2022/03/10 22:40:21;;;;;;;;;;;9.20;95.00;;;;;;4994055;28;19906;-82
2022/03/10 22:42:47;;;;;;;;;;;9.20;95.10;;;;;;4994050;28;20278;-82
2022/03/10 22:45:13;;;;;;;;;;;9.10;95.10;;;;;;4993872;28;19905;-82
2022/03/10 22:47:43;;;;;;;;;;;9.10;95.30;;;;;;4994080;28;19906;-82
2022/03/10 22:55:46;;;;;;;;;;;8.90;95.60;;;;;;4993986;28;20038;-82
2022/03/10 22:58:12;;;;;;;;;;;8.90;95.70;;;;;;4993877;28;20357;-82
2022/03/10 23:00:39;;;;;;;;;;;8.90;95.70;;;;;;4992161;28;20338;-82
2022/03/10 23:03:05;;;;;;;;;;;9.00;95.70;;;;;;4993682;28;19910;-82
2022/03/10 23:08:15;;;;;;;;;;;9.00;96.20;;;;;;4994071;28;20009;-82
2022/03/10 23:10:41;;;;;;;;;;;9.00;96.00;;;;;;4991769;28;19976;-82
2022/03/10 23:13:07;;;;;;;;;;;9.00;96.00;;;;;;4993693;28;19905;-82
2022/03/10 23:15:33;;;;;;;;;;;8.90;96.00;;;;;;4992329;28;20352;-83
2022/03/10 23:17:59;;;;;;;;;;;8.90;96.10;;;;;;4993207;28;19917;-83
2022/03/10 23:20:24;;;;;;;;;;;8.90;96.20;;;;;;4991560;28;19906;-82
2022/03/10 23:22:50;;;;;;;;;;;8.90;96.40;;;;;;4992933;28;20242;-83
2022/03/10 23:25:16;;;;;;;;;;;8.90;96.60;;;;;;4991596;28;19906;-82
2022/03/10 23:27:43;;;;;;;;;;;8.90;96.90;;;;;;4993808;28;19906;-84
2022/03/10 23:30:09;;;;;;;;;;;8.90;96.90;;;;;;4993104;28;19906;-84
2022/03/10 23:32:35;;;;;;;;;;;9.00;96.80;;;;;;4993287;28;20223;-83
2022/03/10 23:35:04;;;;;;;;;;;9.00;96.70;;;;;;4993360;28;19945;-83
2022/03/10 23:37:29;;;;;;;;;;;9.00;96.80;;;;;;4992889;28;20416;-83
2022/03/10 23:39:55;;;;;;;;;;;9.00;96.90;;;;;;4993215;28;19909;-83
2022/03/10 23:42:21;;;;;;;;;;;8.90;96.90;;;;;;4992792;28;19996;-80
2022/03/10 23:44:47;;;;;;;;;;;8.90;97.10;;;;;;4992228;28;19982;-81
2022/03/10 23:47:14;;;;;;;;;;;8.90;97.10;;;;;;4992505;28;20304;-83
2022/03/10 23:49:40;;;;;;;;;;;8.90;97.10;;;;;;4992734;28;19906;-83
2022/03/10 23:52:06;;;;;;;;;;;8.90;97.40;;;;;;4993167;28;20273;-83
2022/03/10 23:54:32;;;;;;;;;;;8.90;97.40;;;;;;4992462;28;19917;-81
2022/03/10 23:56:58;;;;;;;;;;;8.90;97.40;;;;;;4992412;28;19914;-81
2022/03/10 23:59:24;;;;;;;;;;;9.00;97.30;;;;;;4992562;28;20369;-81
